ESNK

Kramfors Sollefteå Airport

Kramfors / Sollefteå, Sweden
METAR ESNK 211420Z AUTO 08002KT 9999 -RA OVC027/// 07/06 Q1007 RERA
Observed Flight Rules
Oct-21 @ 14:20 UTC (18 minutes ago) Marginal Visual Flight Rules
Wind Visibility Clouds Conditions
80° at 2 knots 10,000+ meters
  • Overcast at 2,700' AGL
  • Light Rain
Temperatures Readings
Current 7°C / 45°F
Dewpoint 6°C / 43°F
Humidity 93%
Altimeter 29.73" Hg
Pressure 1007 hPa
Elevation 19
METAR ESNK 211420Z AUTO 08002KT 9999 -RA OVC027/// 07/06 Q1007 RERA
Observed Flight Rules
Oct-21 @ 14:20 UTC
(18 minutes ago)
MVFR
Wind Visibility
80° at 2 knots 10,000+ meters
Clouds
  • Overcast at 2,700' AGL
Conditions
  • Light Rain
Temperature Dewpoint
7°C / 45°F 6°C / 43°F
Humidity Altimeter Pressure
93% 29.73" Hg 1007 hPa